createdAt,value
2022-12-09T00:03:23.387Z,6
2022-12-09T00:09:38.748Z,6
2022-12-09T00:16:01.896Z,4.3
2022-12-09T00:22:21.921Z,4.3
2022-12-09T00:28:44.657Z,4
2022-12-09T00:35:04.817Z,4
2022-12-09T00:41:27.800Z,4.6
2022-12-09T00:47:47.842Z,4.6
2022-12-09T00:54:10.774Z,3.8
2022-12-09T01:00:30.681Z,3.8
2022-12-09T01:06:53.558Z,3.7
2022-12-09T01:13:13.908Z,3.7
2022-12-09T01:19:36.931Z,4.9
2022-12-09T01:25:56.621Z,4.9
2022-12-09T01:32:19.805Z,3
2022-12-09T01:38:39.651Z,3
2022-12-09T01:45:02.753Z,4.6
2022-12-09T01:51:22.651Z,4.6
2022-12-09T01:57:45.768Z,3.4
2022-12-09T02:04:05.888Z,3.4
2022-12-09T02:10:28.672Z,4.3
2022-12-09T02:16:49.051Z,4.3
2022-12-09T02:23:11.589Z,4.4
2022-12-09T02:29:31.856Z,4.4
2022-12-09T02:35:54.911Z,4.5
2022-12-09T02:42:14.579Z,4.5
2022-12-09T02:48:37.951Z,6
2022-12-09T02:54:57.873Z,6
2022-12-09T03:01:20.589Z,2.5
2022-12-09T03:07:40.670Z,2.5
2022-12-09T03:14:03.719Z,5.3
2022-12-09T03:20:23.808Z,5.3
2022-12-09T03:26:46.667Z,6.6
2022-12-09T03:33:06.893Z,6.6
2022-12-09T03:39:29.489Z,3
2022-12-09T03:45:49.832Z,3
2022-12-09T03:52:12.813Z,3.2
2022-12-09T03:58:32.716Z,3.2
2022-12-09T04:21:02.801Z,10.6
2022-12-09T04:27:22.744Z,10.6
2022-12-09T04:33:45.790Z,10
2022-12-09T04:40:06.096Z,10
2022-12-09T04:46:29.057Z,5.2
2022-12-09T04:52:48.496Z,5.2
2022-12-09T04:59:11.809Z,6.4
2022-12-09T05:05:31.578Z,6.4
2022-12-09T05:11:54.838Z,3.5
2022-12-09T05:18:14.887Z,3.5
2022-12-09T05:24:37.664Z,6.4
2022-12-09T05:30:57.790Z,6.4
2022-12-09T05:37:20.649Z,3.9
2022-12-09T05:43:41.031Z,3.9
2022-12-09T05:50:07.779Z,3.4
2022-12-09T05:56:24.111Z,3.4
2022-12-09T06:02:46.942Z,5.4
2022-12-09T06:09:06.701Z,5.4
2022-12-09T06:15:33.370Z,5.6
2022-12-09T06:21:49.632Z,5.6
2022-12-09T06:28:12.973Z,7
2022-12-09T06:34:32.800Z,7
2022-12-09T06:40:55.915Z,9.4
2022-12-09T06:47:15.642Z,9.4
2022-12-09T06:53:39.136Z,9.6
2022-12-09T06:59:58.834Z,9.6
2022-12-09T07:06:21.922Z,7.3
2022-12-09T07:12:41.836Z,7.3
2022-12-09T07:19:04.548Z,8.2
2022-12-09T07:25:25.061Z,8.2
2022-12-09T07:31:47.646Z,6.2
2022-12-09T07:38:08.043Z,6.2
2022-12-09T07:44:30.561Z,8.9
2022-12-09T07:50:50.825Z,8.9
2022-12-09T07:57:13.758Z,10.1
2022-12-09T08:03:34.168Z,10.1
2022-12-09T08:09:57.245Z,5.5
2022-12-09T08:16:16.826Z,5.5
2022-12-09T08:22:39.810Z,6.6
2022-12-09T08:28:59.905Z,6.6
2022-12-09T08:35:22.994Z,7
2022-12-09T08:41:43.129Z,7
2022-12-09T08:48:06.163Z,9.5
2022-12-09T08:54:25.660Z,9.5
2022-12-09T09:00:48.996Z,7
2022-12-09T09:23:36.767Z,8.9
2022-12-09T09:29:56.886Z,8.9
2022-12-09T09:36:19.594Z,4.9
2022-12-09T09:42:39.732Z,4.9
2022-12-09T09:49:02.571Z,7.5
2022-12-09T09:55:22.645Z,7.5
2022-12-09T10:01:45.724Z,6.8
2022-12-09T10:08:06.219Z,6.8
2022-12-09T10:14:28.684Z,5.9
2022-12-09T10:20:48.733Z,5.9
2022-12-09T10:27:11.826Z,8
2022-12-09T10:33:31.648Z,8
2022-12-09T10:39:54.938Z,8.9
2022-12-09T10:46:18.233Z,8.9
2022-12-09T10:52:37.843Z,5.7
2022-12-09T10:58:57.830Z,5.7
2022-12-09T11:05:20.879Z,9.4
2022-12-09T11:11:41.165Z,9.4
2022-12-09T11:18:04.267Z,7.9
2022-12-09T11:24:23.945Z,7.9
2022-12-09T11:30:58.655Z,9.2
2022-12-09T11:37:06.648Z,9.2
2022-12-09T11:43:29.822Z,6.9
2022-12-09T11:49:49.610Z,6.9
2022-12-09T11:56:12.919Z,4.5
2022-12-09T12:02:32.908Z,4.5
2022-12-09T12:08:55.771Z,3.7
2022-12-09T12:15:15.648Z,3.7
2022-12-09T12:21:38.543Z,4.7
2022-12-09T12:27:58.911Z,4.7
2022-12-09T12:34:25.636Z,5.5
2022-12-09T12:40:41.763Z,5.5
2022-12-09T12:47:04.650Z,6.5
2022-12-09T12:53:24.549Z,6.5
2022-12-09T12:59:47.645Z,3.1
2022-12-09T13:06:07.593Z,3.1
2022-12-09T13:12:30.572Z,7.5
2022-12-09T13:18:50.579Z,7.5
2022-12-09T13:25:13.484Z,5
2022-12-09T13:31:33.627Z,5
2022-12-09T13:37:56.626Z,4.7
2022-12-09T13:44:16.483Z,4.7
2022-12-09T13:50:39.609Z,6.9
2022-12-09T13:56:59.614Z,6.9
2022-12-09T14:03:22.744Z,6
2022-12-09T14:20:16.229Z,3.5
2022-12-09T14:26:38.994Z,6.4
2022-12-09T14:32:58.493Z,6.4
2022-12-09T14:39:24.531Z,6.8
2022-12-09T14:45:41.466Z,6.8
2022-12-09T14:52:04.677Z,4.4
2022-12-09T14:58:24.650Z,4.4
2022-12-09T15:04:47.630Z,3.9
2022-12-09T15:11:07.664Z,3.9
2022-12-09T15:17:30.595Z,5.9
2022-12-09T15:23:51.943Z,5.9
2022-12-09T15:30:14.563Z,5.3
2022-12-09T15:36:34.518Z,5.3
2022-12-09T15:42:57.719Z,2.6
2022-12-09T15:49:17.573Z,2.6
2022-12-09T15:55:40.521Z,4.7
2022-12-09T16:02:00.613Z,4.7
2022-12-09T16:08:23.663Z,6.7
2022-12-09T16:14:43.718Z,6.7
2022-12-09T16:21:06.629Z,4.1
2022-12-09T16:27:26.473Z,4.1
2022-12-09T16:33:49.567Z,5.3
2022-12-09T16:40:09.585Z,5.3
2022-12-09T16:46:32.536Z,5.4
2022-12-09T16:52:52.695Z,5.4
2022-12-09T16:59:15.526Z,3
2022-12-09T17:05:35.632Z,3
2022-12-09T17:11:58.664Z,6.3
2022-12-09T17:18:18.731Z,6.3
2022-12-09T17:24:41.569Z,3.6
2022-12-09T17:31:01.606Z,3.6
2022-12-09T17:37:24.515Z,5.5
2022-12-09T17:43:44.577Z,5.5
2022-12-09T17:50:08.001Z,5.4
2022-12-09T17:56:27.467Z,5.4
2022-12-09T18:02:50.516Z,5.5
2022-12-09T18:09:10.536Z,5.5
2022-12-09T18:15:33.485Z,2.6
2022-12-09T18:21:53.509Z,2.6
2022-12-09T18:28:16.568Z,6.1
2022-12-09T18:34:36.498Z,6.1
2022-12-09T18:40:59.555Z,5
2022-12-09T18:47:19.565Z,5
2022-12-09T18:53:42.520Z,6.3
2022-12-09T19:00:02.635Z,6.3
2022-12-09T19:06:25.748Z,4.1
2022-12-09T19:30:06.736Z,8.6
2022-12-09T19:36:26.521Z,8.6
2022-12-09T19:42:49.751Z,7.6
2022-12-09T19:49:09.651Z,7.6
2022-12-09T19:55:32.614Z,4.7
2022-12-09T20:01:52.597Z,4.7
2022-12-09T20:08:15.560Z,5.1
2022-12-09T20:14:35.607Z,5.1
2022-12-09T20:20:58.481Z,7.7
2022-12-09T20:27:18.503Z,7.7
2022-12-09T20:33:41.570Z,4.9
2022-12-09T20:40:01.481Z,4.9
2022-12-09T20:46:24.517Z,10.2
2022-12-09T20:52:44.577Z,10.2
2022-12-09T20:59:07.599Z,6.6
2022-12-09T21:05:27.603Z,6.6
2022-12-09T21:11:50.474Z,6
2022-12-09T21:18:10.581Z,6
2022-12-09T21:24:33.579Z,7.1
2022-12-09T21:30:53.560Z,7.1
2022-12-09T21:37:16.587Z,7.1
2022-12-09T21:43:36.545Z,7.1
2022-12-09T21:49:59.470Z,6.7
2022-12-09T21:56:19.666Z,6.7
2022-12-09T22:02:42.655Z,7.3
2022-12-09T22:09:02.615Z,7.3
2022-12-09T22:15:25.600Z,11
2022-12-09T22:21:45.548Z,11
2022-12-09T22:28:08.556Z,4.9
2022-12-09T22:34:28.615Z,4.9
2022-12-09T22:40:51.683Z,8.4
2022-12-09T22:47:11.627Z,8.4
2022-12-09T22:53:34.610Z,10.5
2022-12-09T22:59:54.789Z,10.5
2022-12-09T23:22:51.480Z,22.3
2022-12-09T23:29:11.489Z,22.3
2022-12-09T23:35:34.492Z,22.3
2022-12-09T23:41:54.682Z,22.3
2022-12-09T23:48:17.482Z,7.7
2022-12-09T23:54:37.528Z,7.7
